sensor_id;sensor_type;location;lat;lon;timestamp;P1;durP1;ratioP1;P2;durP2;ratioP2
39324;SDS011;25037;49.488;9.900;2022-09-09T00:03:53;2.30;;;0.90;;
39324;SDS011;25037;49.488;9.900;2022-09-09T00:06:45;3.10;;;1.00;;
39324;SDS011;25037;49.488;9.900;2022-09-09T00:09:20;2.22;;;0.57;;
39324;SDS011;25037;49.488;9.900;2022-09-09T00:11:52;2.17;;;1.15;;
39324;SDS011;25037;49.488;9.900;2022-09-09T00:14:51;3.22;;;1.02;;
39324;SDS011;25037;49.488;9.900;2022-09-09T00:20:14;1.42;;;0.75;;
39324;SDS011;25037;49.488;9.900;2022-09-09T00:22:44;2.35;;;0.70;;
39324;SDS011;25037;49.488;9.900;2022-09-09T00:25:24;3.90;;;0.68;;
39324;SDS011;25037;49.488;9.900;2022-09-09T00:27:55;2.53;;;0.65;;
39324;SDS011;25037;49.488;9.900;2022-09-09T00:32:58;2.63;;;1.17;;
39324;SDS011;25037;49.488;9.900;2022-09-09T00:35:37;2.50;;;0.75;;
39324;SDS011;25037;49.488;9.900;2022-09-09T00:38:10;2.50;;;0.70;;
39324;SDS011;25037;49.488;9.900;2022-09-09T00:41:13;2.45;;;0.80;;
39324;SDS011;25037;49.488;9.900;2022-09-09T00:43:46;2.53;;;0.60;;
39324;SDS011;25037;49.488;9.900;2022-09-09T00:49:31;2.22;;;0.60;;
39324;SDS011;25037;49.488;9.900;2022-09-09T00:52:20;3.75;;;0.73;;
39324;SDS011;25037;49.488;9.900;2022-09-09T00:54:51;5.93;;;1.15;;
39324;SDS011;25037;49.488;9.900;2022-09-09T00:57:26;2.75;;;0.70;;
39324;SDS011;25037;49.488;9.900;2022-09-09T01:00:14;3.08;;;0.63;;
39324;SDS011;25037;49.488;9.900;2022-09-09T01:02:56;3.47;;;0.85;;
39324;SDS011;25037;49.488;9.900;2022-09-09T01:07:58;3.33;;;0.80;;
39324;SDS011;25037;49.488;9.900;2022-09-09T01:13:29;4.25;;;1.17;;
39324;SDS011;25037;49.488;9.900;2022-09-09T01:16:00;2.55;;;0.80;;
39324;SDS011;25037;49.488;9.900;2022-09-09T01:18:33;3.20;;;0.95;;
39324;SDS011;25037;49.488;9.900;2022-09-09T01:26:30;5.00;;;1.08;;
39324;SDS011;25037;49.488;9.900;2022-09-09T01:29:06;4.22;;;1.05;;
39324;SDS011;25037;49.488;9.900;2022-09-09T01:31:38;2.38;;;0.88;;
39324;SDS011;25037;49.488;9.900;2022-09-09T01:34:12;4.00;;;1.02;;
39324;SDS011;25037;49.488;9.900;2022-09-09T01:36:43;3.25;;;1.10;;
39324;SDS011;25037;49.488;9.900;2022-09-09T01:39:09;5.30;;;1.17;;
39324;SDS011;25037;49.488;9.900;2022-09-09T01:41:36;2.90;;;0.80;;
39324;SDS011;25037;49.488;9.900;2022-09-09T01:44:03;4.28;;;0.85;;
39324;SDS011;25037;49.488;9.900;2022-09-09T01:46:28;3.20;;;1.00;;
39324;SDS011;25037;49.488;9.900;2022-09-09T01:48:54;3.55;;;0.88;;
39324;SDS011;25037;49.488;9.900;2022-09-09T01:51:21;2.88;;;0.90;;
39324;SDS011;25037;49.488;9.900;2022-09-09T01:53:47;4.03;;;1.15;;
39324;SDS011;25037;49.488;9.900;2022-09-09T02:04:43;2.95;;;1.17;;
39324;SDS011;25037;49.488;9.900;2022-09-09T02:07:15;5.47;;;1.52;;
39324;SDS011;25037;49.488;9.900;2022-09-09T02:10:55;3.00;;;0.90;;
39324;SDS011;25037;49.488;9.900;2022-09-09T02:12:53;2.72;;;0.93;;
39324;SDS011;25037;49.488;9.900;2022-09-09T02:15:37;2.55;;;1.30;;
39324;SDS011;25037;49.488;9.900;2022-09-09T02:18:20;4.15;;;1.50;;
39324;SDS011;25037;49.488;9.900;2022-09-09T02:20:51;1.98;;;0.75;;
39324;SDS011;25037;49.488;9.900;2022-09-09T02:23:18;3.00;;;1.02;;
39324;SDS011;25037;49.488;9.900;2022-09-09T02:25:45;4.72;;;0.98;;
39324;SDS011;25037;49.488;9.900;2022-09-09T02:28:13;2.22;;;0.75;;
39324;SDS011;25037;49.488;9.900;2022-09-09T02:30:40;3.78;;;1.05;;
39324;SDS011;25037;49.488;9.900;2022-09-09T02:33:10;5.72;;;1.20;;
39324;SDS011;25037;49.488;9.900;2022-09-09T02:35:37;3.45;;;1.08;;
39324;SDS011;25037;49.488;9.900;2022-09-09T02:38:07;2.67;;;0.88;;
39324;SDS011;25037;49.488;9.900;2022-09-09T02:40:36;3.90;;;1.50;;
39324;SDS011;25037;49.488;9.900;2022-09-09T02:43:02;3.22;;;1.25;;
39324;SDS011;25037;49.488;9.900;2022-09-09T02:45:31;3.58;;;1.10;;
39324;SDS011;25037;49.488;9.900;2022-09-09T02:48:09;1.80;;;0.90;;
39324;SDS011;25037;49.488;9.900;2022-09-09T02:51:04;3.40;;;0.88;;
39324;SDS011;25037;49.488;9.900;2022-09-09T02:53:48;2.45;;;0.85;;
39324;SDS011;25037;49.488;9.900;2022-09-09T02:56:36;4.00;;;1.10;;
39324;SDS011;25037;49.488;9.900;2022-09-09T02:59:05;3.40;;;1.17;;
39324;SDS011;25037;49.488;9.900;2022-09-09T03:01:31;3.65;;;1.15;;
39324;SDS011;25037;49.488;9.900;2022-09-09T03:03:56;5.80;;;1.10;;
39324;SDS011;25037;49.488;9.900;2022-09-09T03:06:22;2.55;;;1.00;;
39324;SDS011;25037;49.488;9.900;2022-09-09T03:08:48;3.70;;;1.08;;
39324;SDS011;25037;49.488;9.900;2022-09-09T03:11:14;2.63;;;1.00;;
39324;SDS011;25037;49.488;9.900;2022-09-09T03:13:41;2.67;;;0.88;;
39324;SDS011;25037;49.488;9.900;2022-09-09T03:16:07;2.67;;;0.90;;
39324;SDS011;25037;49.488;9.900;2022-09-09T03:18:32;3.22;;;0.82;;
39324;SDS011;25037;49.488;9.900;2022-09-09T03:20:59;2.55;;;0.80;;
39324;SDS011;25037;49.488;9.900;2022-09-09T03:23:25;4.65;;;1.20;;
39324;SDS011;25037;49.488;9.900;2022-09-09T03:25:51;2.65;;;0.85;;
39324;SDS011;25037;49.488;9.900;2022-09-09T03:28:17;3.88;;;0.90;;
39324;SDS011;25037;49.488;9.900;2022-09-09T03:30:43;3.63;;;0.85;;
39324;SDS011;25037;49.488;9.900;2022-09-09T03:33:08;2.30;;;0.77;;
39324;SDS011;25037;49.488;9.900;2022-09-09T03:35:34;2.83;;;0.90;;
39324;SDS011;25037;49.488;9.900;2022-09-09T03:37:59;1.67;;;0.65;;
39324;SDS011;25037;49.488;9.900;2022-09-09T03:40:25;2.22;;;0.93;;
39324;SDS011;25037;49.488;9.900;2022-09-09T03:42:51;3.72;;;0.88;;
39324;SDS011;25037;49.488;9.900;2022-09-09T03:45:16;4.20;;;1.40;;
39324;SDS011;25037;49.488;9.900;2022-09-09T03:47:42;3.25;;;1.17;;
39324;SDS011;25037;49.488;9.900;2022-09-09T03:50:08;1.75;;;0.80;;
39324;SDS011;25037;49.488;9.900;2022-09-09T03:52:38;2.88;;;0.70;;
39324;SDS011;25037;49.488;9.900;2022-09-09T03:55:06;3.70;;;0.80;;
39324;SDS011;25037;49.488;9.900;2022-09-09T03:57:32;2.25;;;0.75;;
39324;SDS011;25037;49.488;9.900;2022-09-09T04:00:00;5.25;;;1.20;;
39324;SDS011;25037;49.488;9.900;2022-09-09T04:02:29;2.25;;;0.90;;
39324;SDS011;25037;49.488;9.900;2022-09-09T04:04:55;3.10;;;0.98;;
39324;SDS011;25037;49.488;9.900;2022-09-09T04:07:21;2.20;;;0.90;;
39324;SDS011;25037;49.488;9.900;2022-09-09T04:09:46;4.18;;;0.95;;
39324;SDS011;25037;49.488;9.900;2022-09-09T04:12:12;2.63;;;0.90;;
39324;SDS011;25037;49.488;9.900;2022-09-09T04:14:38;3.63;;;1.25;;
39324;SDS011;25037;49.488;9.900;2022-09-09T04:17:03;2.10;;;1.40;;
39324;SDS011;25037;49.488;9.900;2022-09-09T04:19:31;2.58;;;0.82;;
39324;SDS011;25037;49.488;9.900;2022-09-09T04:21:57;3.22;;;0.80;;
39324;SDS011;25037;49.488;9.900;2022-09-09T04:24:22;2.72;;;1.02;;
39324;SDS011;25037;49.488;9.900;2022-09-09T04:26:48;2.75;;;0.70;;
39324;SDS011;25037;49.488;9.900;2022-09-09T04:29:14;2.83;;;1.08;;
39324;SDS011;25037;49.488;9.900;2022-09-09T04:31:39;3.53;;;1.42;;
39324;SDS011;25037;49.488;9.900;2022-09-09T04:34:07;2.75;;;0.90;;
39324;SDS011;25037;49.488;9.900;2022-09-09T04:36:33;3.50;;;1.05;;
39324;SDS011;25037;49.488;9.900;2022-09-09T04:38:59;3.95;;;0.88;;
39324;SDS011;25037;49.488;9.900;2022-09-09T04:41:26;3.83;;;0.88;;
39324;SDS011;25037;49.488;9.900;2022-09-09T04:43:52;4.05;;;1.15;;
39324;SDS011;25037;49.488;9.900;2022-09-09T04:46:18;2.58;;;1.20;;
39324;SDS011;25037;49.488;9.900;2022-09-09T04:48:44;4.82;;;1.08;;
39324;SDS011;25037;49.488;9.900;2022-09-09T04:51:12;2.88;;;1.02;;
39324;SDS011;25037;49.488;9.900;2022-09-09T04:53:38;2.67;;;0.70;;
39324;SDS011;25037;49.488;9.900;2022-09-09T04:56:09;4.13;;;0.88;;
39324;SDS011;25037;49.488;9.900;2022-09-09T04:58:41;4.32;;;0.85;;
39324;SDS011;25037;49.488;9.900;2022-09-09T05:01:09;1.85;;;0.90;;
39324;SDS011;25037;49.488;9.900;2022-09-09T05:03:36;2.45;;;0.70;;
39324;SDS011;25037;49.488;9.900;2022-09-09T05:06:06;1.48;;;0.65;;
39324;SDS011;25037;49.488;9.900;2022-09-09T05:08:33;3.80;;;0.60;;
39324;SDS011;25037;49.488;9.900;2022-09-09T05:10:59;2.60;;;0.77;;
39324;SDS011;25037;49.488;9.900;2022-09-09T05:13:25;2.63;;;1.00;;
39324;SDS011;25037;49.488;9.900;2022-09-09T05:15:52;2.53;;;0.77;;
39324;SDS011;25037;49.488;9.900;2022-09-09T05:18:18;2.28;;;0.80;;
39324;SDS011;25037;49.488;9.900;2022-09-09T05:20:44;2.20;;;1.10;;
39324;SDS011;25037;49.488;9.900;2022-09-09T05:23:09;4.20;;;0.75;;
39324;SDS011;25037;49.488;9.900;2022-09-09T05:25:38;5.22;;;0.80;;
39324;SDS011;25037;49.488;9.900;2022-09-09T05:28:04;3.10;;;0.90;;
39324;SDS011;25037;49.488;9.900;2022-09-09T05:30:30;2.42;;;0.73;;
39324;SDS011;25037;49.488;9.900;2022-09-09T05:32:56;2.83;;;1.02;;
39324;SDS011;25037;49.488;9.900;2022-09-09T05:35:21;5.57;;;1.27;;
39324;SDS011;25037;49.488;9.900;2022-09-09T05:37:47;3.25;;;0.80;;
39324;SDS011;25037;49.488;9.900;2022-09-09T05:40:13;2.60;;;0.65;;
39324;SDS011;25037;49.488;9.900;2022-09-09T05:42:39;1.92;;;0.50;;
39324;SDS011;25037;49.488;9.900;2022-09-09T05:45:06;3.35;;;0.57;;
39324;SDS011;25037;49.488;9.900;2022-09-09T05:47:32;3.33;;;0.80;;
39324;SDS011;25037;49.488;9.900;2022-09-09T05:49:58;3.05;;;0.55;;
39324;SDS011;25037;49.488;9.900;2022-09-09T05:52:24;3.65;;;1.02;;
39324;SDS011;25037;49.488;9.900;2022-09-09T05:54:51;2.40;;;0.52;;
39324;SDS011;25037;49.488;9.900;2022-09-09T05:57:16;6.97;;;1.50;;
39324;SDS011;25037;49.488;9.900;2022-09-09T05:59:44;3.83;;;0.70;;
39324;SDS011;25037;49.488;9.900;2022-09-09T06:02:09;3.33;;;0.98;;
39324;SDS011;25037;49.488;9.900;2022-09-09T06:04:35;3.22;;;0.70;;
39324;SDS011;25037;49.488;9.900;2022-09-09T06:07:01;2.83;;;0.70;;
39324;SDS011;25037;49.488;9.900;2022-09-09T06:09:26;3.08;;;0.70;;
39324;SDS011;25037;49.488;9.900;2022-09-09T06:11:52;2.80;;;0.70;;
39324;SDS011;25037;49.488;9.900;2022-09-09T06:14:19;1.83;;;0.38;;
39324;SDS011;25037;49.488;9.900;2022-09-09T06:16:45;3.05;;;0.45;;
39324;SDS011;25037;49.488;9.900;2022-09-09T06:19:11;1.17;;;0.40;;
39324;SDS011;25037;49.488;9.900;2022-09-09T06:21:37;3.95;;;0.63;;
39324;SDS011;25037;49.488;9.900;2022-09-09T06:24:03;2.92;;;0.55;;
39324;SDS011;25037;49.488;9.900;2022-09-09T06:26:30;3.78;;;0.77;;
39324;SDS011;25037;49.488;9.900;2022-09-09T06:28:57;2.28;;;0.40;;
39324;SDS011;25037;49.488;9.900;2022-09-09T06:31:25;2.65;;;0.57;;
39324;SDS011;25037;49.488;9.900;2022-09-09T06:33:55;3.88;;;0.75;;
39324;SDS011;25037;49.488;9.900;2022-09-09T06:36:39;3.85;;;0.80;;
39324;SDS011;25037;49.488;9.900;2022-09-09T06:39:05;3.65;;;0.80;;
39324;SDS011;25037;49.488;9.900;2022-09-09T06:41:32;2.72;;;0.50;;
39324;SDS011;25037;49.488;9.900;2022-09-09T06:43:58;3.92;;;0.73;;
39324;SDS011;25037;49.488;9.900;2022-09-09T06:46:25;4.18;;;0.65;;
39324;SDS011;25037;49.488;9.900;2022-09-09T06:48:53;2.85;;;0.88;;
39324;SDS011;25037;49.488;9.900;2022-09-09T06:51:20;5.25;;;0.60;;
39324;SDS011;25037;49.488;9.900;2022-09-09T06:53:49;2.28;;;0.57;;
39324;SDS011;25037;49.488;9.900;2022-09-09T06:58:41;2.30;;;0.68;;
39324;SDS011;25037;49.488;9.900;2022-09-09T07:01:09;3.22;;;0.75;;
39324;SDS011;25037;49.488;9.900;2022-09-09T07:03:37;1.98;;;0.30;;
39324;SDS011;25037;49.488;9.900;2022-09-09T07:06:03;2.28;;;0.60;;
39324;SDS011;25037;49.488;9.900;2022-09-09T07:08:30;2.25;;;0.40;;
39324;SDS011;25037;49.488;9.900;2022-09-09T07:11:03;3.38;;;0.50;;
39324;SDS011;25037;49.488;9.900;2022-09-09T07:13:30;1.67;;;0.60;;
39324;SDS011;25037;49.488;9.900;2022-09-09T07:16:03;2.85;;;0.32;;
39324;SDS011;25037;49.488;9.900;2022-09-09T07:18:32;1.58;;;0.40;;
39324;SDS011;25037;49.488;9.900;2022-09-09T07:20:59;1.42;;;0.30;;
39324;SDS011;25037;49.488;9.900;2022-09-09T07:23:26;2.88;;;0.47;;
39324;SDS011;25037;49.488;9.900;2022-09-09T07:25:51;1.17;;;0.28;;
39324;SDS011;25037;49.488;9.900;2022-09-09T07:28:17;3.47;;;0.88;;
39324;SDS011;25037;49.488;9.900;2022-09-09T07:30:43;1.67;;;0.40;;
39324;SDS011;25037;49.488;9.900;2022-09-09T07:33:17;1.80;;;0.30;;
39324;SDS011;25037;49.488;9.900;2022-09-09T07:35:44;2.10;;;0.32;;
39324;SDS011;25037;49.488;9.900;2022-09-09T07:38:10;3.03;;;0.35;;
39324;SDS011;25037;49.488;9.900;2022-09-09T07:40:36;3.47;;;0.68;;
39324;SDS011;25037;49.488;9.900;2022-09-09T07:43:02;1.02;;;0.25;;
39324;SDS011;25037;49.488;9.900;2022-09-09T07:45:27;2.65;;;0.30;;
39324;SDS011;25037;49.488;9.900;2022-09-09T07:47:53;1.98;;;0.30;;
39324;SDS011;25037;49.488;9.900;2022-09-09T07:50:21;1.67;;;0.43;;
39324;SDS011;25037;49.488;9.900;2022-09-09T07:52:48;1.60;;;0.20;;
39324;SDS011;25037;49.488;9.900;2022-09-09T07:55:15;3.00;;;0.50;;
39324;SDS011;25037;49.488;9.900;2022-09-09T07:57:40;2.97;;;0.50;;
39324;SDS011;25037;49.488;9.900;2022-09-09T08:00:06;2.75;;;0.40;;
39324;SDS011;25037;49.488;9.900;2022-09-09T08:02:32;1.95;;;0.32;;
39324;SDS011;25037;49.488;9.900;2022-09-09T08:04:58;2.80;;;0.43;;
39324;SDS011;25037;49.488;9.900;2022-09-09T08:07:23;3.70;;;0.60;;
39324;SDS011;25037;49.488;9.900;2022-09-09T08:09:49;3.33;;;0.50;;
39324;SDS011;25037;49.488;9.900;2022-09-09T08:12:15;2.92;;;0.60;;
39324;SDS011;25037;49.488;9.900;2022-09-09T08:14:41;3.60;;;0.25;;
39324;SDS011;25037;49.488;9.900;2022-09-09T08:17:07;3.10;;;0.80;;
39324;SDS011;25037;49.488;9.900;2022-09-09T08:19:32;2.97;;;0.40;;
39324;SDS011;25037;49.488;9.900;2022-09-09T08:22:00;2.60;;;0.40;;
39324;SDS011;25037;49.488;9.900;2022-09-09T08:24:27;2.30;;;0.40;;
39324;SDS011;25037;49.488;9.900;2022-09-09T08:26:52;2.75;;;0.55;;
39324;SDS011;25037;49.488;9.900;2022-09-09T08:29:18;3.47;;;0.73;;
39324;SDS011;25037;49.488;9.900;2022-09-09T08:34:11;3.15;;;0.50;;
39324;SDS011;25037;49.488;9.900;2022-09-09T08:36:39;4.22;;;0.70;;
39324;SDS011;25037;49.488;9.900;2022-09-09T08:39:08;2.88;;;0.60;;
39324;SDS011;25037;49.488;9.900;2022-09-09T08:55:22;2.63;;;0.70;;
39324;SDS011;25037;49.488;9.900;2022-09-09T08:57:56;2.53;;;0.63;;
39324;SDS011;25037;49.488;9.900;2022-09-09T09:00:28;4.80;;;0.85;;
39324;SDS011;25037;49.488;9.900;2022-09-09T09:03:15;3.53;;;0.95;;
39324;SDS011;25037;49.488;9.900;2022-09-09T09:11:48;3.05;;;0.98;;
39324;SDS011;25037;49.488;9.900;2022-09-09T09:14:18;5.60;;;1.08;;
39324;SDS011;25037;49.488;9.900;2022-09-09T09:19:29;5.28;;;0.90;;
39324;SDS011;25037;49.488;9.900;2022-09-09T09:24:40;2.40;;;0.70;;
39324;SDS011;25037;49.488;9.900;2022-09-09T09:27:39;3.80;;;1.38;;
39324;SDS011;25037;49.488;9.900;2022-09-09T09:30:34;3.97;;;1.02;;
39324;SDS011;25037;49.488;9.900;2022-09-09T09:33:46;2.17;;;0.40;;
39324;SDS011;25037;49.488;9.900;2022-09-09T09:35:52;4.85;;;0.63;;
39324;SDS011;25037;49.488;9.900;2022-09-09T09:38:22;2.60;;;0.60;;
39324;SDS011;25037;49.488;9.900;2022-09-09T09:40:56;4.93;;;0.80;;
39324;SDS011;25037;49.488;9.900;2022-09-09T09:43:24;5.35;;;0.93;;
39324;SDS011;25037;49.488;9.900;2022-09-09T09:45:53;6.88;;;1.00;;
39324;SDS011;25037;49.488;9.900;2022-09-09T09:48:19;3.20;;;0.70;;
39324;SDS011;25037;49.488;9.900;2022-09-09T09:53:22;2.70;;;0.95;;
39324;SDS011;25037;49.488;9.900;2022-09-09T09:56:03;3.55;;;0.98;;
39324;SDS011;25037;49.488;9.900;2022-09-09T09:58:33;4.60;;;0.82;;
39324;SDS011;25037;49.488;9.900;2022-09-09T10:01:32;4.18;;;0.60;;
39324;SDS011;25037;49.488;9.900;2022-09-09T10:04:17;6.20;;;1.33;;
39324;SDS011;25037;49.488;9.900;2022-09-09T10:06:45;2.90;;;0.88;;
39324;SDS011;25037;49.488;9.900;2022-09-09T10:09:20;3.60;;;0.60;;
39324;SDS011;25037;49.488;9.900;2022-09-09T10:16:49;5.32;;;0.82;;
39324;SDS011;25037;49.488;9.900;2022-09-09T10:22:37;3.15;;;0.40;;
39324;SDS011;25037;49.488;9.900;2022-09-09T10:34:52;3.20;;;0.60;;
39324;SDS011;25037;49.488;9.900;2022-09-09T10:37:11;2.20;;;0.32;;
39324;SDS011;25037;49.488;9.900;2022-09-09T10:40:20;2.00;;;0.75;;
39324;SDS011;25037;49.488;9.900;2022-09-09T10:42:46;3.97;;;0.47;;
39324;SDS011;25037;49.488;9.900;2022-09-09T10:45:17;2.28;;;0.50;;
39324;SDS011;25037;49.488;9.900;2022-09-09T10:48:04;2.63;;;0.30;;
39324;SDS011;25037;49.488;9.900;2022-09-09T10:56:07;1.92;;;0.40;;
39324;SDS011;25037;49.488;9.900;2022-09-09T10:58:48;0.75;;;0.20;;
39324;SDS011;25037;49.488;9.900;2022-09-09T11:01:43;2.92;;;1.05;;
39324;SDS011;25037;49.488;9.900;2022-09-09T11:04:17;1.48;;;0.22;;
39324;SDS011;25037;49.488;9.900;2022-09-09T11:06:59;1.63;;;0.40;;
39324;SDS011;25037;49.488;9.900;2022-09-09T11:09:32;3.28;;;0.28;;
39324;SDS011;25037;49.488;9.900;2022-09-09T11:12:04;3.83;;;0.52;;
39324;SDS011;25037;49.488;9.900;2022-09-09T11:17:13;4.13;;;0.30;;
39324;SDS011;25037;49.488;9.900;2022-09-09T11:19:44;3.38;;;0.40;;
39324;SDS011;25037;49.488;9.900;2022-09-09T11:35:48;2.78;;;0.22;;
39324;SDS011;25037;49.488;9.900;2022-09-09T11:38:41;1.73;;;0.30;;
39324;SDS011;25037;49.488;9.900;2022-09-09T11:41:11;1.65;;;0.20;;
39324;SDS011;25037;49.488;9.900;2022-09-09T11:43:43;1.73;;;0.47;;
39324;SDS011;25037;49.488;9.900;2022-09-09T11:46:09;2.35;;;0.20;;
39324;SDS011;25037;49.488;9.900;2022-09-09T11:48:38;2.65;;;0.40;;
39324;SDS011;25037;49.488;9.900;2022-09-09T11:51:29;1.50;;;0.40;;
39324;SDS011;25037;49.488;9.900;2022-09-09T11:56:33;3.03;;;0.82;;
39324;SDS011;25037;49.488;9.900;2022-09-09T12:10:19;2.10;;;0.38;;
39324;SDS011;25037;49.488;9.900;2022-09-09T12:12:54;3.40;;;0.30;;
39324;SDS011;25037;49.488;9.900;2022-09-09T12:15:23;3.47;;;0.60;;
39324;SDS011;25037;49.488;9.900;2022-09-09T12:17:54;2.35;;;0.30;;
39324;SDS011;25037;49.488;9.900;2022-09-09T12:20:23;2.05;;;0.30;;
39324;SDS011;25037;49.488;9.900;2022-09-09T12:23:05;2.70;;;0.40;;
39324;SDS011;25037;49.488;9.900;2022-09-09T12:25:53;2.95;;;0.50;;
39324;SDS011;25037;49.488;9.900;2022-09-09T12:28:52;1.13;;;0.10;;
39324;SDS011;25037;49.488;9.900;2022-09-09T12:34:29;1.95;;;0.43;;
39324;SDS011;25037;49.488;9.900;2022-09-09T12:36:59;1.50;;;0.30;;
39324;SDS011;25037;49.488;9.900;2022-09-09T12:39:32;2.05;;;0.43;;
39324;SDS011;25037;49.488;9.900;2022-09-09T12:44:29;2.05;;;0.40;;
39324;SDS011;25037;49.488;9.900;2022-09-09T12:46:58;0.80;;;0.30;;
39324;SDS011;25037;49.488;9.900;2022-09-09T12:49:31;2.95;;;0.20;;
39324;SDS011;25037;49.488;9.900;2022-09-09T12:52:07;2.25;;;0.28;;
39324;SDS011;25037;49.488;9.900;2022-09-09T12:54:44;0.77;;;0.20;;
39324;SDS011;25037;49.488;9.900;2022-09-09T12:57:12;3.53;;;0.60;;
39324;SDS011;25037;49.488;9.900;2022-09-09T12:59:39;2.45;;;0.45;;
39324;SDS011;25037;49.488;9.900;2022-09-09T13:02:11;2.30;;;0.43;;
39324;SDS011;25037;49.488;9.900;2022-09-09T13:04:49;2.75;;;0.32;;
39324;SDS011;25037;49.488;9.900;2022-09-09T13:07:16;2.25;;;0.30;;
39324;SDS011;25037;49.488;9.900;2022-09-09T13:09:43;3.72;;;1.00;;
39324;SDS011;25037;49.488;9.900;2022-09-09T13:12:27;2.95;;;0.70;;
39324;SDS011;25037;49.488;9.900;2022-09-09T13:14:53;1.95;;;0.22;;
39324;SDS011;25037;49.488;9.900;2022-09-09T13:17:22;2.90;;;0.40;;
39324;SDS011;25037;49.488;9.900;2022-09-09T13:19:49;3.05;;;0.85;;
39324;SDS011;25037;49.488;9.900;2022-09-09T13:22:21;1.52;;;0.50;;
39324;SDS011;25037;49.488;9.900;2022-09-09T13:24:58;2.90;;;0.90;;
39324;SDS011;25037;49.488;9.900;2022-09-09T13:30:55;4.20;;;0.55;;
39324;SDS011;25037;49.488;9.900;2022-09-09T13:33:35;2.83;;;0.43;;
39324;SDS011;25037;49.488;9.900;2022-09-09T13:36:07;2.92;;;0.40;;
39324;SDS011;25037;49.488;9.900;2022-09-09T13:38:36;2.33;;;0.65;;
39324;SDS011;25037;49.488;9.900;2022-09-09T13:43:35;1.95;;;0.30;;
39324;SDS011;25037;49.488;9.900;2022-09-09T13:46:04;2.42;;;1.10;;
39324;SDS011;25037;49.488;9.900;2022-09-09T13:48:56;1.40;;;0.30;;
39324;SDS011;25037;49.488;9.900;2022-09-09T13:51:44;2.35;;;0.30;;
39324;SDS011;25037;49.488;9.900;2022-09-09T13:54:12;2.00;;;0.22;;
39324;SDS011;25037;49.488;9.900;2022-09-09T13:56:38;1.52;;;0.30;;
39324;SDS011;25037;49.488;9.900;2022-09-09T13:59:08;2.17;;;0.35;;
39324;SDS011;25037;49.488;9.900;2022-09-09T14:01:36;1.92;;;0.50;;
39324;SDS011;25037;49.488;9.900;2022-09-09T14:04:02;2.50;;;0.45;;
39324;SDS011;25037;49.488;9.900;2022-09-09T14:06:29;1.83;;;0.40;;
39324;SDS011;25037;49.488;9.900;2022-09-09T14:08:54;2.20;;;0.32;;
39324;SDS011;25037;49.488;9.900;2022-09-09T14:11:21;2.80;;;0.30;;
39324;SDS011;25037;49.488;9.900;2022-09-09T14:13:47;2.35;;;0.30;;
39324;SDS011;25037;49.488;9.900;2022-09-09T14:16:14;1.27;;;0.30;;
39324;SDS011;25037;49.488;9.900;2022-09-09T14:18:41;0.88;;;0.20;;
39324;SDS011;25037;49.488;9.900;2022-09-09T14:21:07;1.65;;;0.30;;
39324;SDS011;25037;49.488;9.900;2022-09-09T14:23:33;1.08;;;0.20;;
39324;SDS011;25037;49.488;9.900;2022-09-09T14:25:59;0.82;;;0.30;;
39324;SDS011;25037;49.488;9.900;2022-09-09T14:28:25;0.85;;;0.20;;
39324;SDS011;25037;49.488;9.900;2022-09-09T14:30:50;1.60;;;0.30;;
39324;SDS011;25037;49.488;9.900;2022-09-09T14:33:16;0.50;;;0.10;;
39324;SDS011;25037;49.488;9.900;2022-09-09T14:35:42;0.57;;;0.17;;
39324;SDS011;25037;49.488;9.900;2022-09-09T14:38:09;1.35;;;0.17;;
39324;SDS011;25037;49.488;9.900;2022-09-09T14:40:35;1.98;;;0.30;;
39324;SDS011;25037;49.488;9.900;2022-09-09T14:43:02;1.00;;;0.30;;
39324;SDS011;25037;49.488;9.900;2022-09-09T14:45:28;0.65;;;0.20;;
39324;SDS011;25037;49.488;9.900;2022-09-09T14:47:53;1.50;;;0.20;;
39324;SDS011;25037;49.488;9.900;2022-09-09T14:50:19;0.65;;;0.20;;
39324;SDS011;25037;49.488;9.900;2022-09-09T14:52:46;2.08;;;0.30;;
39324;SDS011;25037;49.488;9.900;2022-09-09T14:55:11;2.70;;;0.30;;
39324;SDS011;25037;49.488;9.900;2022-09-09T14:57:38;2.45;;;0.22;;
39324;SDS011;25037;49.488;9.900;2022-09-09T15:00:05;1.35;;;0.20;;
39324;SDS011;25037;49.488;9.900;2022-09-09T15:02:32;1.20;;;0.20;;
39324;SDS011;25037;49.488;9.900;2022-09-09T15:04:58;2.80;;;0.38;;
39324;SDS011;25037;49.488;9.900;2022-09-09T15:07:26;4.30;;;1.00;;
39324;SDS011;25037;49.488;9.900;2022-09-09T15:09:53;3.65;;;0.60;;
39324;SDS011;25037;49.488;9.900;2022-09-09T15:12:19;1.35;;;0.30;;
39324;SDS011;25037;49.488;9.900;2022-09-09T15:14:45;1.65;;;0.50;;
39324;SDS011;25037;49.488;9.900;2022-09-09T15:17:11;2.25;;;0.30;;
39324;SDS011;25037;49.488;9.900;2022-09-09T15:19:37;1.67;;;0.30;;
39324;SDS011;25037;49.488;9.900;2022-09-09T15:22:03;2.20;;;0.40;;
39324;SDS011;25037;49.488;9.900;2022-09-09T15:24:33;2.38;;;0.30;;
39324;SDS011;25037;49.488;9.900;2022-09-09T15:26:59;1.55;;;0.25;;
39324;SDS011;25037;49.488;9.900;2022-09-09T15:29:25;1.88;;;0.10;;
39324;SDS011;25037;49.488;9.900;2022-09-09T15:31:50;3.50;;;0.52;;
39324;SDS011;25037;49.488;9.900;2022-09-09T15:34:18;3.00;;;0.35;;
39324;SDS011;25037;49.488;9.900;2022-09-09T15:36:44;2.53;;;0.60;;
39324;SDS011;25037;49.488;9.900;2022-09-09T15:39:16;2.35;;;0.20;;
39324;SDS011;25037;49.488;9.900;2022-09-09T15:41:43;3.25;;;0.50;;
39324;SDS011;25037;49.488;9.900;2022-09-09T15:44:13;2.08;;;0.40;;
39324;SDS011;25037;49.488;9.900;2022-09-09T15:46:44;1.77;;;0.20;;
39324;SDS011;25037;49.488;9.900;2022-09-09T15:51:46;1.42;;;0.20;;
39324;SDS011;25037;49.488;9.900;2022-09-09T15:54:16;1.52;;;0.10;;
39324;SDS011;25037;49.488;9.900;2022-09-09T15:56:43;1.05;;;0.10;;
39324;SDS011;25037;49.488;9.900;2022-09-09T15:59:10;1.48;;;0.25;;
39324;SDS011;25037;49.488;9.900;2022-09-09T16:01:36;2.28;;;0.20;;
39324;SDS011;25037;49.488;9.900;2022-09-09T16:04:04;0.80;;;0.20;;
39324;SDS011;25037;49.488;9.900;2022-09-09T16:06:30;2.28;;;0.35;;
39324;SDS011;25037;49.488;9.900;2022-09-09T16:08:57;1.60;;;0.40;;
39324;SDS011;25037;49.488;9.900;2022-09-09T16:11:25;1.05;;;0.10;;
39324;SDS011;25037;49.488;9.900;2022-09-09T16:13:53;1.60;;;0.17;;
39324;SDS011;25037;49.488;9.900;2022-09-09T16:16:21;1.05;;;0.10;;
39324;SDS011;25037;49.488;9.900;2022-09-09T16:18:52;1.10;;;0.20;;
39324;SDS011;25037;49.488;9.900;2022-09-09T16:21:21;1.20;;;0.10;;
39324;SDS011;25037;49.488;9.900;2022-09-09T16:23:51;1.50;;;0.20;;
39324;SDS011;25037;49.488;9.900;2022-09-09T16:26:20;1.20;;;0.10;;
39324;SDS011;25037;49.488;9.900;2022-09-09T16:28:46;1.25;;;0.17;;
39324;SDS011;25037;49.488;9.900;2022-09-09T16:31:13;2.72;;;0.20;;
39324;SDS011;25037;49.488;9.900;2022-09-09T16:33:43;2.42;;;0.28;;
39324;SDS011;25037;49.488;9.900;2022-09-09T16:36:20;1.75;;;0.30;;
39324;SDS011;25037;49.488;9.900;2022-09-09T16:38:48;1.58;;;0.40;;
39324;SDS011;25037;49.488;9.900;2022-09-09T16:41:17;1.80;;;0.30;;
39324;SDS011;25037;49.488;9.900;2022-09-09T16:43:44;1.40;;;0.20;;
39324;SDS011;25037;49.488;9.900;2022-09-09T16:46:17;1.13;;;0.10;;
39324;SDS011;25037;49.488;9.900;2022-09-09T16:48:45;1.52;;;0.20;;
39324;SDS011;25037;49.488;9.900;2022-09-09T16:51:12;0.55;;;0.10;;
39324;SDS011;25037;49.488;9.900;2022-09-09T16:53:40;2.38;;;0.68;;
39324;SDS011;25037;49.488;9.900;2022-09-09T16:56:08;1.98;;;0.28;;
39324;SDS011;25037;49.488;9.900;2022-09-09T16:58:35;3.92;;;0.55;;
39324;SDS011;25037;49.488;9.900;2022-09-09T17:01:01;2.28;;;0.25;;
39324;SDS011;25037;49.488;9.900;2022-09-09T17:03:28;0.85;;;0.20;;
39324;SDS011;25037;49.488;9.900;2022-09-09T17:05:54;2.00;;;0.30;;
39324;SDS011;25037;49.488;9.900;2022-09-09T17:08:20;1.20;;;0.63;;
39324;SDS011;25037;49.488;9.900;2022-09-09T17:10:45;2.47;;;0.22;;
39324;SDS011;25037;49.488;9.900;2022-09-09T17:13:12;1.23;;;0.20;;
39324;SDS011;25037;49.488;9.900;2022-09-09T17:15:41;1.10;;;0.25;;